sensor_id;sensor_type;location;lat;lon;timestamp;P1;durP1;ratioP1;P2;durP2;ratioP2
53281;SDS011;39167;52.794;6.892;2022-09-27T00:01:35;6.82;;;1.50;;
53281;SDS011;39167;52.794;6.892;2022-09-27T00:04:01;11.25;;;1.75;;
53281;SDS011;39167;52.794;6.892;2022-09-27T00:06:27;9.40;;;1.35;;
53281;SDS011;39167;52.794;6.892;2022-09-27T00:08:55;10.35;;;1.65;;
53281;SDS011;39167;52.794;6.892;2022-09-27T00:11:29;11.10;;;1.88;;
53281;SDS011;39167;52.794;6.892;2022-09-27T00:13:55;11.40;;;2.75;;
53281;SDS011;39167;52.794;6.892;2022-09-27T00:16:23;10.00;;;1.58;;
53281;SDS011;39167;52.794;6.892;2022-09-27T00:18:56;7.17;;;1.73;;
53281;SDS011;39167;52.794;6.892;2022-09-27T00:21:26;8.55;;;2.08;;
53281;SDS011;39167;52.794;6.892;2022-09-27T00:23:54;8.50;;;1.67;;
53281;SDS011;39167;52.794;6.892;2022-09-27T00:26:20;9.10;;;2.20;;
53281;SDS011;39167;52.794;6.892;2022-09-27T00:28:45;9.98;;;1.85;;
53281;SDS011;39167;52.794;6.892;2022-09-27T00:31:18;8.25;;;1.70;;
53281;SDS011;39167;52.794;6.892;2022-09-27T00:33:51;9.18;;;1.42;;
53281;SDS011;39167;52.794;6.892;2022-09-27T00:38:44;10.65;;;1.55;;
53281;SDS011;39167;52.794;6.892;2022-09-27T00:41:18;8.13;;;1.45;;
53281;SDS011;39167;52.794;6.892;2022-09-27T00:43:47;9.57;;;1.70;;
53281;SDS011;39167;52.794;6.892;2022-09-27T00:46:28;5.63;;;1.58;;
53281;SDS011;39167;52.794;6.892;2022-09-27T00:51:39;8.63;;;1.50;;
53281;SDS011;39167;52.794;6.892;2022-09-27T00:54:06;7.78;;;1.60;;
53281;SDS011;39167;52.794;6.892;2022-09-27T00:56:35;6.38;;;1.30;;
53281;SDS011;39167;52.794;6.892;2022-09-27T00:59:09;9.32;;;1.20;;
53281;SDS011;39167;52.794;6.892;2022-09-27T01:01:40;11.13;;;1.50;;
53281;SDS011;39167;52.794;6.892;2022-09-27T01:04:08;7.70;;;1.23;;
53281;SDS011;39167;52.794;6.892;2022-09-27T01:06:35;7.13;;;1.00;;
53281;SDS011;39167;52.794;6.892;2022-09-27T01:09:02;7.38;;;1.00;;
53281;SDS011;39167;52.794;6.892;2022-09-27T01:11:47;4.25;;;1.25;;
53281;SDS011;39167;52.794;6.892;2022-09-27T01:28:13;8.68;;;1.25;;
53281;SDS011;39167;52.794;6.892;2022-09-27T01:30:47;5.40;;;0.90;;
53281;SDS011;39167;52.794;6.892;2022-09-27T01:44:13;8.02;;;1.00;;
53281;SDS011;39167;52.794;6.892;2022-09-27T01:49:29;5.05;;;0.90;;
53281;SDS011;39167;52.794;6.892;2022-09-27T01:52:02;5.50;;;0.88;;
53281;SDS011;39167;52.794;6.892;2022-09-27T01:54:45;3.92;;;0.63;;
53281;SDS011;39167;52.794;6.892;2022-09-27T01:57:23;5.60;;;1.10;;
53281;SDS011;39167;52.794;6.892;2022-09-27T01:59:57;1.95;;;0.60;;
53281;SDS011;39167;52.794;6.892;2022-09-27T02:02:27;5.00;;;0.82;;
53281;SDS011;39167;52.794;6.892;2022-09-27T02:04:55;4.82;;;0.77;;
53281;SDS011;39167;52.794;6.892;2022-09-27T02:07:31;4.15;;;1.10;;
53281;SDS011;39167;52.794;6.892;2022-09-27T02:10:16;1.83;;;0.50;;
53281;SDS011;39167;52.794;6.892;2022-09-27T02:16:06;6.63;;;1.15;;
53281;SDS011;39167;52.794;6.892;2022-09-27T02:21:15;4.68;;;0.88;;
53281;SDS011;39167;52.794;6.892;2022-09-27T02:23:51;3.55;;;1.00;;
53281;SDS011;39167;52.794;6.892;2022-09-27T02:26:30;3.15;;;0.65;;
53281;SDS011;39167;52.794;6.892;2022-09-27T02:29:07;4.10;;;0.70;;
53281;SDS011;39167;52.794;6.892;2022-09-27T02:31:35;3.95;;;0.70;;
53281;SDS011;39167;52.794;6.892;2022-09-27T02:34:03;3.53;;;0.75;;
53281;SDS011;39167;52.794;6.892;2022-09-27T02:36:33;5.88;;;1.50;;
53281;SDS011;39167;52.794;6.892;2022-09-27T02:38:59;3.95;;;0.60;;
53281;SDS011;39167;52.794;6.892;2022-09-27T02:41:25;4.53;;;1.00;;
53281;SDS011;39167;52.794;6.892;2022-09-27T02:43:54;6.07;;;1.10;;
53281;SDS011;39167;52.794;6.892;2022-09-27T02:52:42;5.13;;;0.68;;
53281;SDS011;39167;52.794;6.892;2022-09-27T03:00:40;3.15;;;0.82;;
53281;SDS011;39167;52.794;6.892;2022-09-27T03:03:27;3.60;;;0.80;;
53281;SDS011;39167;52.794;6.892;2022-09-27T03:06:10;3.13;;;0.70;;
53281;SDS011;39167;52.794;6.892;2022-09-27T03:08:40;2.28;;;0.50;;
53281;SDS011;39167;52.794;6.892;2022-09-27T03:11:07;3.95;;;0.65;;
53281;SDS011;39167;52.794;6.892;2022-09-27T03:13:33;3.78;;;0.65;;
53281;SDS011;39167;52.794;6.892;2022-09-27T03:16:02;6.82;;;0.75;;
53281;SDS011;39167;52.794;6.892;2022-09-27T03:18:32;3.08;;;0.57;;
53281;SDS011;39167;52.794;6.892;2022-09-27T03:20:58;3.45;;;0.68;;
53281;SDS011;39167;52.794;6.892;2022-09-27T03:23:24;6.07;;;0.80;;
53281;SDS011;39167;52.794;6.892;2022-09-27T03:25:50;5.30;;;0.88;;
53281;SDS011;39167;52.794;6.892;2022-09-27T03:28:16;2.38;;;0.55;;
53281;SDS011;39167;52.794;6.892;2022-09-27T03:30:46;6.13;;;0.82;;
53281;SDS011;39167;52.794;6.892;2022-09-27T03:33:12;3.42;;;0.68;;
53281;SDS011;39167;52.794;6.892;2022-09-27T03:35:38;5.53;;;0.68;;
53281;SDS011;39167;52.794;6.892;2022-09-27T03:38:06;6.93;;;0.77;;
53281;SDS011;39167;52.794;6.892;2022-09-27T03:40:33;3.53;;;0.57;;
53281;SDS011;39167;52.794;6.892;2022-09-27T03:42:59;5.30;;;0.52;;
53281;SDS011;39167;52.794;6.892;2022-09-27T03:45:25;4.72;;;0.50;;
53281;SDS011;39167;52.794;6.892;2022-09-27T03:47:51;2.83;;;0.70;;
53281;SDS011;39167;52.794;6.892;2022-09-27T03:50:17;2.50;;;0.60;;
53281;SDS011;39167;52.794;6.892;2022-09-27T03:52:42;3.95;;;0.50;;
53281;SDS011;39167;52.794;6.892;2022-09-27T03:55:08;4.20;;;0.60;;
53281;SDS011;39167;52.794;6.892;2022-09-27T03:57:37;2.75;;;0.50;;
53281;SDS011;39167;52.794;6.892;2022-09-27T04:00:03;4.68;;;0.65;;
53281;SDS011;39167;52.794;6.892;2022-09-27T04:02:30;4.95;;;0.80;;
53281;SDS011;39167;52.794;6.892;2022-09-27T04:04:56;3.20;;;0.50;;
53281;SDS011;39167;52.794;6.892;2022-09-27T04:07:22;2.60;;;0.45;;
53281;SDS011;39167;52.794;6.892;2022-09-27T04:09:48;2.15;;;0.57;;
53281;SDS011;39167;52.794;6.892;2022-09-27T04:12:13;2.13;;;0.50;;
53281;SDS011;39167;52.794;6.892;2022-09-27T04:14:39;1.92;;;0.45;;
53281;SDS011;39167;52.794;6.892;2022-09-27T04:17:05;4.10;;;0.60;;
53281;SDS011;39167;52.794;6.892;2022-09-27T04:19:31;5.10;;;0.73;;
53281;SDS011;39167;52.794;6.892;2022-09-27T04:21:57;3.90;;;1.05;;
53281;SDS011;39167;52.794;6.892;2022-09-27T04:24:22;2.65;;;0.60;;
53281;SDS011;39167;52.794;6.892;2022-09-27T04:26:49;3.05;;;0.73;;
53281;SDS011;39167;52.794;6.892;2022-09-27T04:29:15;3.75;;;0.90;;
53281;SDS011;39167;52.794;6.892;2022-09-27T04:31:41;3.78;;;0.57;;
53281;SDS011;39167;52.794;6.892;2022-09-27T04:34:08;3.58;;;0.70;;
53281;SDS011;39167;52.794;6.892;2022-09-27T04:36:34;2.65;;;0.68;;
53281;SDS011;39167;52.794;6.892;2022-09-27T04:39:01;2.90;;;0.55;;
53281;SDS011;39167;52.794;6.892;2022-09-27T04:41:30;4.35;;;0.40;;
53281;SDS011;39167;52.794;6.892;2022-09-27T04:43:55;2.75;;;0.50;;
53281;SDS011;39167;52.794;6.892;2022-09-27T04:46:24;5.82;;;0.60;;
53281;SDS011;39167;52.794;6.892;2022-09-27T04:48:50;8.55;;;1.00;;
53281;SDS011;39167;52.794;6.892;2022-09-27T04:51:16;5.75;;;0.70;;
53281;SDS011;39167;52.794;6.892;2022-09-27T04:53:42;1.98;;;0.60;;
53281;SDS011;39167;52.794;6.892;2022-09-27T04:56:09;4.95;;;0.80;;
53281;SDS011;39167;52.794;6.892;2022-09-27T04:58:36;9.23;;;1.95;;
53281;SDS011;39167;52.794;6.892;2022-09-27T05:01:03;5.70;;;0.70;;
53281;SDS011;39167;52.794;6.892;2022-09-27T05:03:30;2.88;;;0.68;;
53281;SDS011;39167;52.794;6.892;2022-09-27T05:05:56;3.38;;;0.75;;
53281;SDS011;39167;52.794;6.892;2022-09-27T05:08:22;2.75;;;0.60;;
53281;SDS011;39167;52.794;6.892;2022-09-27T05:10:48;2.35;;;0.50;;
53281;SDS011;39167;52.794;6.892;2022-09-27T05:13:14;2.60;;;0.57;;
53281;SDS011;39167;52.794;6.892;2022-09-27T05:15:40;6.57;;;0.50;;
53281;SDS011;39167;52.794;6.892;2022-09-27T05:18:06;4.53;;;0.77;;
53281;SDS011;39167;52.794;6.892;2022-09-27T05:20:34;2.90;;;0.40;;
53281;SDS011;39167;52.794;6.892;2022-09-27T05:23:00;2.75;;;0.73;;
53281;SDS011;39167;52.794;6.892;2022-09-27T05:25:28;4.40;;;0.60;;
53281;SDS011;39167;52.794;6.892;2022-09-27T05:27:55;6.82;;;0.80;;
53281;SDS011;39167;52.794;6.892;2022-09-27T05:30:22;3.92;;;0.55;;
53281;SDS011;39167;52.794;6.892;2022-09-27T05:32:49;3.15;;;0.60;;
53281;SDS011;39167;52.794;6.892;2022-09-27T05:35:15;5.45;;;0.70;;
53281;SDS011;39167;52.794;6.892;2022-09-27T05:37:43;2.10;;;0.40;;
53281;SDS011;39167;52.794;6.892;2022-09-27T05:40:16;2.58;;;0.55;;
53281;SDS011;39167;52.794;6.892;2022-09-27T05:42:41;3.00;;;0.40;;
53281;SDS011;39167;52.794;6.892;2022-09-27T05:45:07;1.65;;;0.47;;
53281;SDS011;39167;52.794;6.892;2022-09-27T05:47:33;4.53;;;0.70;;
53281;SDS011;39167;52.794;6.892;2022-09-27T05:49:59;3.72;;;0.55;;
53281;SDS011;39167;52.794;6.892;2022-09-27T05:52:25;2.75;;;0.60;;
53281;SDS011;39167;52.794;6.892;2022-09-27T05:54:51;2.88;;;0.50;;
53281;SDS011;39167;52.794;6.892;2022-09-27T05:57:16;6.10;;;0.68;;
53281;SDS011;39167;52.794;6.892;2022-09-27T05:59:42;5.32;;;0.60;;
53281;SDS011;39167;52.794;6.892;2022-09-27T06:02:09;3.35;;;0.60;;
53281;SDS011;39167;52.794;6.892;2022-09-27T06:04:36;3.17;;;0.60;;
53281;SDS011;39167;52.794;6.892;2022-09-27T06:07:01;1.73;;;0.40;;
53281;SDS011;39167;52.794;6.892;2022-09-27T06:09:27;3.85;;;0.73;;
53281;SDS011;39167;52.794;6.892;2022-09-27T06:11:53;2.78;;;0.60;;
53281;SDS011;39167;52.794;6.892;2022-09-27T06:14:19;1.75;;;0.52;;
53281;SDS011;39167;52.794;6.892;2022-09-27T06:16:45;3.33;;;0.50;;
53281;SDS011;39167;52.794;6.892;2022-09-27T06:19:10;1.83;;;0.65;;
53281;SDS011;39167;52.794;6.892;2022-09-27T06:21:36;2.25;;;0.65;;
53281;SDS011;39167;52.794;6.892;2022-09-27T06:24:02;4.05;;;0.70;;
53281;SDS011;39167;52.794;6.892;2022-09-27T06:26:28;3.53;;;0.70;;
53281;SDS011;39167;52.794;6.892;2022-09-27T06:28:54;2.35;;;0.75;;
53281;SDS011;39167;52.794;6.892;2022-09-27T06:31:20;4.20;;;0.90;;
53281;SDS011;39167;52.794;6.892;2022-09-27T06:33:47;4.38;;;0.93;;
53281;SDS011;39167;52.794;6.892;2022-09-27T06:36:14;3.22;;;0.75;;
53281;SDS011;39167;52.794;6.892;2022-09-27T06:38:40;3.40;;;0.80;;
53281;SDS011;39167;52.794;6.892;2022-09-27T06:41:06;2.03;;;0.60;;
53281;SDS011;39167;52.794;6.892;2022-09-27T06:43:33;3.25;;;0.82;;
53281;SDS011;39167;52.794;6.892;2022-09-27T06:45:59;5.93;;;1.30;;
53281;SDS011;39167;52.794;6.892;2022-09-27T06:48:30;5.22;;;0.70;;
53281;SDS011;39167;52.794;6.892;2022-09-27T06:50:57;4.95;;;0.80;;
53281;SDS011;39167;52.794;6.892;2022-09-27T06:53:23;3.50;;;0.80;;
53281;SDS011;39167;52.794;6.892;2022-09-27T06:55:50;2.28;;;0.98;;
53281;SDS011;39167;52.794;6.892;2022-09-27T06:58:16;5.13;;;0.95;;
53281;SDS011;39167;52.794;6.892;2022-09-27T07:01:00;0.93;;;0.50;;
53281;SDS011;39167;52.794;6.892;2022-09-27T07:03:26;4.43;;;0.60;;
53281;SDS011;39167;52.794;6.892;2022-09-27T07:05:57;5.90;;;1.00;;
53281;SDS011;39167;52.794;6.892;2022-09-27T07:08:24;4.80;;;0.73;;
53281;SDS011;39167;52.794;6.892;2022-09-27T07:10:53;3.97;;;0.90;;
53281;SDS011;39167;52.794;6.892;2022-09-27T07:13:20;4.65;;;0.80;;
53281;SDS011;39167;52.794;6.892;2022-09-27T07:15:46;5.85;;;0.80;;
53281;SDS011;39167;52.794;6.892;2022-09-27T07:18:12;3.45;;;0.60;;
53281;SDS011;39167;52.794;6.892;2022-09-27T07:20:38;4.45;;;0.70;;
53281;SDS011;39167;52.794;6.892;2022-09-27T07:23:04;3.63;;;1.10;;
53281;SDS011;39167;52.794;6.892;2022-09-27T07:25:31;4.57;;;0.90;;
53281;SDS011;39167;52.794;6.892;2022-09-27T07:28:01;5.25;;;1.08;;
53281;SDS011;39167;52.794;6.892;2022-09-27T07:30:28;5.88;;;1.00;;
53281;SDS011;39167;52.794;6.892;2022-09-27T07:32:58;4.68;;;0.93;;
53281;SDS011;39167;52.794;6.892;2022-09-27T07:35:25;3.95;;;0.73;;
53281;SDS011;39167;52.794;6.892;2022-09-27T07:37:52;3.88;;;0.70;;
53281;SDS011;39167;52.794;6.892;2022-09-27T07:40:18;3.28;;;0.70;;
53281;SDS011;39167;52.794;6.892;2022-09-27T07:42:44;3.47;;;0.70;;
53281;SDS011;39167;52.794;6.892;2022-09-27T07:45:10;6.55;;;0.70;;
53281;SDS011;39167;52.794;6.892;2022-09-27T07:47:38;2.17;;;0.60;;
53281;SDS011;39167;52.794;6.892;2022-09-27T07:50:05;5.05;;;0.50;;
53281;SDS011;39167;52.794;6.892;2022-09-27T07:52:40;7.78;;;0.82;;
53281;SDS011;39167;52.794;6.892;2022-09-27T07:55:07;4.93;;;0.70;;
53281;SDS011;39167;52.794;6.892;2022-09-27T07:57:35;2.65;;;0.68;;
53281;SDS011;39167;52.794;6.892;2022-09-27T08:00:05;6.15;;;0.93;;
53281;SDS011;39167;52.794;6.892;2022-09-27T08:02:33;4.10;;;1.15;;
53281;SDS011;39167;52.794;6.892;2022-09-27T08:04:59;4.63;;;0.82;;
53281;SDS011;39167;52.794;6.892;2022-09-27T08:07:25;3.50;;;0.75;;
53281;SDS011;39167;52.794;6.892;2022-09-27T08:09:52;3.72;;;0.70;;
53281;SDS011;39167;52.794;6.892;2022-09-27T08:12:18;4.03;;;0.85;;
53281;SDS011;39167;52.794;6.892;2022-09-27T08:14:47;1.35;;;0.60;;
53281;SDS011;39167;52.794;6.892;2022-09-27T08:17:13;4.97;;;0.73;;
53281;SDS011;39167;52.794;6.892;2022-09-27T08:19:39;4.63;;;0.70;;
53281;SDS011;39167;52.794;6.892;2022-09-27T08:22:05;5.13;;;0.63;;
53281;SDS011;39167;52.794;6.892;2022-09-27T08:24:32;3.72;;;1.05;;
53281;SDS011;39167;52.794;6.892;2022-09-27T08:26:58;4.30;;;0.80;;
53281;SDS011;39167;52.794;6.892;2022-09-27T08:29:24;7.18;;;1.77;;
53281;SDS011;39167;52.794;6.892;2022-09-27T08:31:50;4.18;;;0.88;;
53281;SDS011;39167;52.794;6.892;2022-09-27T08:34:18;4.80;;;0.70;;
53281;SDS011;39167;52.794;6.892;2022-09-27T08:36:47;4.30;;;0.77;;
53281;SDS011;39167;52.794;6.892;2022-09-27T08:39:12;4.13;;;0.68;;
53281;SDS011;39167;52.794;6.892;2022-09-27T08:52:31;4.15;;;0.63;;
53281;SDS011;39167;52.794;6.892;2022-09-27T08:55:29;3.28;;;0.60;;
53281;SDS011;39167;52.794;6.892;2022-09-27T08:57:54;2.72;;;0.32;;
53281;SDS011;39167;52.794;6.892;2022-09-27T09:00:21;7.80;;;0.70;;
53281;SDS011;39167;52.794;6.892;2022-09-27T09:02:48;5.65;;;0.52;;
53281;SDS011;39167;52.794;6.892;2022-09-27T09:05:16;2.22;;;0.75;;
53281;SDS011;39167;52.794;6.892;2022-09-27T09:07:57;1.90;;;0.50;;
53281;SDS011;39167;52.794;6.892;2022-09-27T09:29:50;5.18;;;0.57;;
53281;SDS011;39167;52.794;6.892;2022-09-27T09:38:32;5.13;;;0.68;;
53281;SDS011;39167;52.794;6.892;2022-09-27T09:41:12;5.60;;;0.60;;
53281;SDS011;39167;52.794;6.892;2022-09-27T09:44:01;2.72;;;0.35;;
53281;SDS011;39167;52.794;6.892;2022-09-27T09:51:58;2.47;;;0.50;;
53281;SDS011;39167;52.794;6.892;2022-09-27T09:57:11;4.03;;;0.50;;
53281;SDS011;39167;52.794;6.892;2022-09-27T10:05:02;1.80;;;0.30;;
53281;SDS011;39167;52.794;6.892;2022-09-27T10:07:29;5.75;;;0.50;;
53281;SDS011;39167;52.794;6.892;2022-09-27T10:10:01;2.08;;;0.60;;
53281;SDS011;39167;52.794;6.892;2022-09-27T10:14:56;3.95;;;0.40;;
53281;SDS011;39167;52.794;6.892;2022-09-27T10:17:27;3.20;;;0.47;;
53281;SDS011;39167;52.794;6.892;2022-09-27T10:19:59;2.55;;;0.50;;
53281;SDS011;39167;52.794;6.892;2022-09-27T10:22:33;4.35;;;0.60;;
53281;SDS011;39167;52.794;6.892;2022-09-27T10:25:03;2.00;;;0.50;;
53281;SDS011;39167;52.794;6.892;2022-09-27T10:27:42;2.33;;;0.40;;
53281;SDS011;39167;52.794;6.892;2022-09-27T10:30:21;5.30;;;0.70;;
53281;SDS011;39167;52.794;6.892;2022-09-27T10:32:53;0.65;;;0.30;;
53281;SDS011;39167;52.794;6.892;2022-09-27T10:38:08;1.38;;;0.20;;
53281;SDS011;39167;52.794;6.892;2022-09-27T10:40:45;0.80;;;0.20;;
53281;SDS011;39167;52.794;6.892;2022-09-27T10:48:32;1.85;;;0.30;;
53281;SDS011;39167;52.794;6.892;2022-09-27T10:51:21;2.15;;;0.30;;
53281;SDS011;39167;52.794;6.892;2022-09-27T10:53:50;0.57;;;0.20;;
53281;SDS011;39167;52.794;6.892;2022-09-27T10:56:20;1.42;;;0.20;;
53281;SDS011;39167;52.794;6.892;2022-09-27T10:58:48;0.20;;;0.20;;
53281;SDS011;39167;52.794;6.892;2022-09-27T11:01:15;1.52;;;0.20;;
53281;SDS011;39167;52.794;6.892;2022-09-27T11:03:48;3.17;;;0.50;;
53281;SDS011;39167;52.794;6.892;2022-09-27T11:08:49;1.58;;;0.40;;
53281;SDS011;39167;52.794;6.892;2022-09-27T11:11:22;2.85;;;0.30;;
53281;SDS011;39167;52.794;6.892;2022-09-27T11:13:57;2.47;;;0.30;;
53281;SDS011;39167;52.794;6.892;2022-09-27T11:35:29;1.63;;;0.35;;
53281;SDS011;39167;52.794;6.892;2022-09-27T11:38:20;2.05;;;0.30;;
53281;SDS011;39167;52.794;6.892;2022-09-27T11:44:17;5.82;;;0.50;;
53281;SDS011;39167;52.794;6.892;2022-09-27T11:47:00;2.38;;;0.43;;
53281;SDS011;39167;52.794;6.892;2022-09-27T11:57:25;0.50;;;0.20;;
53281;SDS011;39167;52.794;6.892;2022-09-27T12:05:24;2.00;;;0.30;;
53281;SDS011;39167;52.794;6.892;2022-09-27T12:14:08;1.13;;;0.20;;
53281;SDS011;39167;52.794;6.892;2022-09-27T12:16:42;1.33;;;0.30;;
53281;SDS011;39167;52.794;6.892;2022-09-27T12:19:19;1.85;;;0.20;;
53281;SDS011;39167;52.794;6.892;2022-09-27T12:21:49;1.77;;;0.20;;
53281;SDS011;39167;52.794;6.892;2022-09-27T12:24:22;2.65;;;0.25;;
53281;SDS011;39167;52.794;6.892;2022-09-27T12:26:52;1.42;;;0.30;;
53281;SDS011;39167;52.794;6.892;2022-09-27T12:29:34;2.13;;;0.68;;
53281;SDS011;39167;52.794;6.892;2022-09-27T12:32:12;4.30;;;0.45;;
53281;SDS011;39167;52.794;6.892;2022-09-27T12:35:07;2.08;;;0.22;;
53281;SDS011;39167;52.794;6.892;2022-09-27T12:40:40;0.75;;;0.20;;
53281;SDS011;39167;52.794;6.892;2022-09-27T12:45:55;1.65;;;0.10;;
53281;SDS011;39167;52.794;6.892;2022-09-27T12:51:39;0.47;;;0.28;;
53281;SDS011;39167;52.794;6.892;2022-09-27T12:54:29;1.83;;;0.30;;
53281;SDS011;39167;52.794;6.892;2022-09-27T13:13:17;1.95;;;0.30;;
53281;SDS011;39167;52.794;6.892;2022-09-27T13:15:45;4.88;;;0.45;;
53281;SDS011;39167;52.794;6.892;2022-09-27T13:18:28;3.92;;;0.40;;
53281;SDS011;39167;52.794;6.892;2022-09-27T13:21:03;1.73;;;0.35;;
53281;SDS011;39167;52.794;6.892;2022-09-27T13:25:59;1.17;;;0.30;;
53281;SDS011;39167;52.794;6.892;2022-09-27T13:31:14;2.25;;;0.40;;
53281;SDS011;39167;52.794;6.892;2022-09-27T13:33:44;2.92;;;0.45;;
53281;SDS011;39167;52.794;6.892;2022-09-27T13:36:19;0.95;;;0.30;;
53281;SDS011;39167;52.794;6.892;2022-09-27T13:47:02;2.60;;;0.50;;
53281;SDS011;39167;52.794;6.892;2022-09-27T13:49:38;2.28;;;0.32;;
53281;SDS011;39167;52.794;6.892;2022-09-27T13:52:18;1.27;;;0.22;;
53281;SDS011;39167;52.794;6.892;2022-09-27T13:54:53;3.30;;;0.50;;
53281;SDS011;39167;52.794;6.892;2022-09-27T14:00:16;2.97;;;0.40;;
53281;SDS011;39167;52.794;6.892;2022-09-27T14:08:30;1.48;;;0.57;;
53281;SDS011;39167;52.794;6.892;2022-09-27T14:11:02;2.13;;;0.50;;
53281;SDS011;39167;52.794;6.892;2022-09-27T14:13:34;3.40;;;0.55;;
53281;SDS011;39167;52.794;6.892;2022-09-27T14:16:03;1.00;;;0.40;;
53281;SDS011;39167;52.794;6.892;2022-09-27T14:18:29;2.72;;;0.65;;
53281;SDS011;39167;52.794;6.892;2022-09-27T14:27:09;2.03;;;0.60;;
53281;SDS011;39167;52.794;6.892;2022-09-27T14:29:57;3.38;;;0.45;;
53281;SDS011;39167;52.794;6.892;2022-09-27T14:32:28;1.40;;;0.85;;
53281;SDS011;39167;52.794;6.892;2022-09-27T14:37:51;1.65;;;0.30;;
53281;SDS011;39167;52.794;6.892;2022-09-27T14:40:18;1.20;;;0.40;;
53281;SDS011;39167;52.794;6.892;2022-09-27T14:42:46;1.02;;;0.30;;
53281;SDS011;39167;52.794;6.892;2022-09-27T14:48:25;0.73;;;0.28;;
53281;SDS011;39167;52.794;6.892;2022-09-27T14:53:46;1.15;;;0.30;;
53281;SDS011;39167;52.794;6.892;2022-09-27T14:56:15;1.88;;;0.40;;
53281;SDS011;39167;52.794;6.892;2022-09-27T14:58:44;1.05;;;0.22;;
53281;SDS011;39167;52.794;6.892;2022-09-27T15:01:17;1.45;;;0.30;;
53281;SDS011;39167;52.794;6.892;2022-09-27T15:03:47;2.17;;;0.40;;
53281;SDS011;39167;52.794;6.892;2022-09-27T15:06:17;1.42;;;0.47;;
53281;SDS011;39167;52.794;6.892;2022-09-27T15:08:44;2.97;;;0.30;;
53281;SDS011;39167;52.794;6.892;2022-09-27T15:11:13;3.10;;;0.47;;
53281;SDS011;39167;52.794;6.892;2022-09-27T15:13:41;0.28;;;0.20;;
53281;SDS011;39167;52.794;6.892;2022-09-27T15:16:12;0.88;;;0.30;;
53281;SDS011;39167;52.794;6.892;2022-09-27T15:18:43;2.90;;;0.30;;
53281;SDS011;39167;52.794;6.892;2022-09-27T15:21:12;3.10;;;0.30;;
53281;SDS011;39167;52.794;6.892;2022-09-27T15:23:58;1.40;;;0.25;;
53281;SDS011;39167;52.794;6.892;2022-09-27T15:29:04;0.40;;;0.20;;
53281;SDS011;39167;52.794;6.892;2022-09-27T15:31:31;0.28;;;0.15;;
53281;SDS011;39167;52.794;6.892;2022-09-27T15:33:59;5.40;;;1.40;;
53281;SDS011;39167;52.794;6.892;2022-09-27T15:39:16;0.10;;;0.10;;
53281;SDS011;39167;52.794;6.892;2022-09-27T15:52:42;0.90;;;0.30;;
53281;SDS011;39167;52.794;6.892;2022-09-27T15:55:12;0.98;;;0.45;;
53281;SDS011;39167;52.794;6.892;2022-09-27T15:57:38;0.85;;;0.30;;
53281;SDS011;39167;52.794;6.892;2022-09-27T16:00:06;3.60;;;0.70;;
53281;SDS011;39167;52.794;6.892;2022-09-27T16:02:37;3.00;;;0.50;;
53281;SDS011;39167;52.794;6.892;2022-09-27T16:05:03;2.42;;;0.60;;
53281;SDS011;39167;52.794;6.892;2022-09-27T16:07:29;5.13;;;1.50;;
53281;SDS011;39167;52.794;6.892;2022-09-27T16:09:54;4.55;;;1.77;;
53281;SDS011;39167;52.794;6.892;2022-09-27T16:12:21;3.97;;;1.10;;
53281;SDS011;39167;52.794;6.892;2022-09-27T16:14:47;3.13;;;0.77;;
53281;SDS011;39167;52.794;6.892;2022-09-27T16:17:12;3.00;;;1.02;;
53281;SDS011;39167;52.794;6.892;2022-09-27T16:19:38;2.30;;;0.80;;
53281;SDS011;39167;52.794;6.892;2022-09-27T16:22:04;4.13;;;1.00;;
53281;SDS011;39167;52.794;6.892;2022-09-27T16:24:30;5.47;;;1.95;;
53281;SDS011;39167;52.794;6.892;2022-09-27T16:26:56;7.03;;;2.72;;
53281;SDS011;39167;52.794;6.892;2022-09-27T16:29:22;5.28;;;2.38;;
53281;SDS011;39167;52.794;6.892;2022-09-27T16:31:48;8.77;;;4.07;;
53281;SDS011;39167;52.794;6.892;2022-09-27T16:34:15;6.20;;;1.83;;
53281;SDS011;39167;52.794;6.892;2022-09-27T16:36:41;3.65;;;1.02;;
53281;SDS011;39167;52.794;6.892;2022-09-27T16:39:10;2.10;;;0.70;;
53281;SDS011;39167;52.794;6.892;2022-09-27T16:41:37;3.25;;;0.90;;
53281;SDS011;39167;52.794;6.892;2022-09-27T16:44:05;6.80;;;1.00;;
53281;SDS011;39167;52.794;6.892;2022-09-27T16:46:32;2.25;;;0.60;;
53281;SDS011;39167;52.794;6.892;2022-09-27T16:48:59;1.95;;;0.73;;
53281;SDS011;39167;52.794;6.892;2022-09-27T16:51:25;3.42;;;0.70;;
53281;SDS011;39167;52.794;6.892;2022-09-27T16:54:09;2.97;;;0.80;;
53281;SDS011;39167;52.794;6.892;2022-09-27T16:56:37;5.15;;;1.02;;
53281;SDS011;39167;52.794;6.892;2022-09-27T16:59:03;3.35;;;0.80;;
53281;SDS011;39167;52.794;6.892;2022-09-27T17:01:30;2.05;;;0.80;;
53281;SDS011;39167;52.794;6.892;2022-09-27T17:03:56;1.95;;;0.80;;
53281;SDS011;39167;52.794;6.892;2022-09-27T17:06:23;3.67;;;0.77;;
53281;SDS011;39167;52.794;6.892;2022-09-27T17:08:52;5.88;;;1.10;;
53281;SDS011;39167;52.794;6.892;2022-09-27T17:11:19;3.80;;;1.55;;
53281;SDS011;39167;52.794;6.892;2022-09-27T17:13:45;3.25;;;0.80;;
53281;SDS011;39167;52.794;6.892;2022-09-27T17:16:13;4.75;;;2.10;;
53281;SDS011;39167;52.794;6.892;2022-09-27T17:18:39;4.85;;;1.70;;
53281;SDS011;39167;52.794;6.892;2022-09-27T17:21:05;3.42;;;2.05;;
53281;SDS011;39167;52.794;6.892;2022-09-27T17:23:32;4.78;;;2.53;;
53281;SDS011;39167;52.794;6.892;2022-09-27T17:26:02;2.92;;;1.20;;
53281;SDS011;39167;52.794;6.892;2022-09-27T17:28:33;9.40;;;2.78;;
53281;SDS011;39167;52.794;6.892;2022-09-27T17:31:01;8.23;;;5.28;;
53281;SDS011;39167;52.794;6.892;2022-09-27T17:33:28;8.05;;;3.28;;
53281;SDS011;39167;52.794;6.892;2022-09-27T17:35:58;2.97;;;1.92;;
53281;SDS011;39167;52.794;6.892;2022-09-27T17:38:26;6.10;;;2.42;;
53281;SDS011;39167;52.794;6.892;2022-09-27T17:40:59;5.05;;;1.42;;
53281;SDS011;39167;52.794;6.892;2022-09-27T17:43:26;3.60;;;1.40;;
53281;SDS011;39167;52.794;6.892;2022-09-27T17:45:52;4.20;;;1.23;;
53281;SDS011;39167;52.794;6.892;2022-09-27T17:48:18;3.63;;;1.40;;
53281;SDS011;39167;52.794;6.892;2022-09-27T17:51:02;6.15;;;1.90;;
53281;SDS011;39167;52.794;6.892;2022-09-27T17:53:28;4.20;;;1.08;;
53281;SDS011;39167;52.794;6.892;2022-09-27T17:55:59;5.43;;;1.38;;
53281;SDS011;39167;52.794;6.892;2022-09-27T17:58:25;3.42;;;1.00;;
53281;SDS011;39167;52.794;6.892;2022-09-27T18:00:51;3.00;;;1.10;;
53281;SDS011;39167;52.794;6.892;2022-09-27T18:03:16;10.00;;;2.97;;
53281;SDS011;39167;52.794;6.892;2022-09-27T18:05:42;9.43;;;3.17;;
53281;SDS011;39167;52.794;6.892;2022-09-27T18:08:08;9.52;;;3.92;;
53281;SDS011;39167;52.794;6.892;2022-09-27T18:10:33;9.85;;;3.35;;
53281;SDS011;39167;52.794;6.892;2022-09-27T18:12:59;3.90;;;1.60;;
53281;SDS011;39167;52.794;6.892;2022-09-27T18:15:25;2.40;;;1.08;;
53281;SDS011;39167;52.794;6.892;2022-09-27T18:17:51;5.05;;;1.48;;
53281;SDS011;39167;52.794;6.892;2022-09-27T18:20:17;3.47;;;1.52;;
53281;SDS011;39167;52.794;6.892;2022-09-27T18:22:42;4.22;;;2.28;;
53281;SDS011;39167;52.794;6.892;2022-09-27T18:25:08;5.55;;;1.85;;
53281;SDS011;39167;52.794;6.892;2022-09-27T18:27:36;5.45;;;2.97;;
53281;SDS011;39167;52.794;6.892;2022-09-27T18:30:04;6.55;;;3.80;;
53281;SDS011;39167;52.794;6.892;2022-09-27T18:32:30;5.18;;;2.95;;
53281;SDS011;39167;52.794;6.892;2022-09-27T18:34:56;3.67;;;2.00;;
53281;SDS011;39167;52.794;6.892;2022-09-27T18:37:21;5.32;;;1.67;;
53281;SDS011;39167;52.794;6.892;2022-09-27T18:39:47;2.70;;;1.33;;
53281;SDS011;39167;52.794;6.892;2022-09-27T18:42:13;5.00;;;1.65;;
53281;SDS011;39167;52.794;6.892;2022-09-27T18:44:38;4.22;;;1.40;;
53281;SDS011;39167;52.794;6.892;2022-09-27T18:47:04;3.20;;;1.42;;
53281;SDS011;39167;52.794;6.892;2022-09-27T18:49:30;4.68;;;1.42;;
53281;SDS011;39167;52.794;6.892;2022-09-27T18:51:56;4.32;;;1.40;;
53281;SDS011;39167;52.794;6.892;2022-09-27T18:54:22;2.70;;;1.60;;